sensor_id;sensor_type;location;lat;lon;timestamp;pressure;altitude;pressure_sealevel;temperature;humidity
8061;BME280;4073;42.626;25.386;2023-01-19T00:00:26;96415.47;;;12.91;100.00
8061;BME280;4073;42.626;25.386;2023-01-19T00:02:51;96411.19;;;12.90;100.00
8061;BME280;4073;42.626;25.386;2023-01-19T00:05:19;96420.53;;;12.93;100.00
8061;BME280;4073;42.626;25.386;2023-01-19T00:07:44;96417.34;;;12.91;100.00
8061;BME280;4073;42.626;25.386;2023-01-19T00:10:10;96420.34;;;12.89;100.00
8061;BME280;4073;42.626;25.386;2023-01-19T00:12:36;96431.06;;;12.89;100.00
8061;BME280;4073;42.626;25.386;2023-01-19T00:15:02;96431.38;;;12.88;100.00
8061;BME280;4073;42.626;25.386;2023-01-19T00:17:28;96436.13;;;12.91;100.00
8061;BME280;4073;42.626;25.386;2023-01-19T00:19:53;96434.34;;;12.86;100.00
8061;BME280;4073;42.626;25.386;2023-01-19T00:22:19;96435.44;;;12.85;100.00
8061;BME280;4073;42.626;25.386;2023-01-19T00:24:44;96445.69;;;12.83;100.00
8061;BME280;4073;42.626;25.386;2023-01-19T00:27:10;96427.81;;;12.79;100.00
8061;BME280;4073;42.626;25.386;2023-01-19T00:29:35;96440.75;;;12.77;100.00
8061;BME280;4073;42.626;25.386;2023-01-19T00:32:02;96444.53;;;12.76;100.00
8061;BME280;4073;42.626;25.386;2023-01-19T00:34:29;96449.38;;;12.74;100.00
8061;BME280;4073;42.626;25.386;2023-01-19T00:37:02;96436.78;;;12.74;100.00
8061;BME280;4073;42.626;25.386;2023-01-19T00:39:28;96450.19;;;12.74;100.00
8061;BME280;4073;42.626;25.386;2023-01-19T00:41:53;96446.50;;;12.70;100.00
8061;BME280;4073;42.626;25.386;2023-01-19T00:44:37;96441.94;;;12.71;100.00
8061;BME280;4073;42.626;25.386;2023-01-19T00:47:02;96438.78;;;12.69;100.00
8061;BME280;4073;42.626;25.386;2023-01-19T00:49:30;96436.22;;;12.64;100.00
8061;BME280;4073;42.626;25.386;2023-01-19T00:51:55;96445.72;;;12.70;100.00
8061;BME280;4073;42.626;25.386;2023-01-19T00:54:21;96436.88;;;12.69;100.00
8061;BME280;4073;42.626;25.386;2023-01-19T00:56:46;96449.09;;;12.75;100.00
8061;BME280;4073;42.626;25.386;2023-01-19T00:59:12;96458.25;;;12.74;100.00
8061;BME280;4073;42.626;25.386;2023-01-19T01:01:37;96446.91;;;12.77;100.00
8061;BME280;4073;42.626;25.386;2023-01-19T01:04:03;96433.97;;;12.79;100.00
8061;BME280;4073;42.626;25.386;2023-01-19T01:06:28;96440.16;;;12.80;100.00
8061;BME280;4073;42.626;25.386;2023-01-19T01:08:54;96433.16;;;12.79;100.00
8061;BME280;4073;42.626;25.386;2023-01-19T01:11:19;96433.06;;;12.84;100.00
8061;BME280;4073;42.626;25.386;2023-01-19T01:13:45;96434.03;;;12.88;100.00
8061;BME280;4073;42.626;25.386;2023-01-19T01:16:10;96432.28;;;12.83;100.00
8061;BME280;4073;42.626;25.386;2023-01-19T01:18:35;96426.59;;;12.85;100.00
8061;BME280;4073;42.626;25.386;2023-01-19T01:21:03;96422.94;;;12.81;100.00
8061;BME280;4073;42.626;25.386;2023-01-19T01:23:29;96426.53;;;12.76;100.00
8061;BME280;4073;42.626;25.386;2023-01-19T01:25:54;96428.00;;;12.82;100.00
8061;BME280;4073;42.626;25.386;2023-01-19T01:28:20;96413.19;;;12.85;100.00
8061;BME280;4073;42.626;25.386;2023-01-19T01:30:45;96417.94;;;12.88;100.00
8061;BME280;4073;42.626;25.386;2023-01-19T01:33:10;96427.41;;;12.85;100.00
8061;BME280;4073;42.626;25.386;2023-01-19T01:35:36;96428.81;;;12.83;100.00
8061;BME280;4073;42.626;25.386;2023-01-19T01:38:02;96416.19;;;12.83;100.00
8061;BME280;4073;42.626;25.386;2023-01-19T01:40:28;96427.13;;;12.73;100.00
8061;BME280;4073;42.626;25.386;2023-01-19T01:42:53;96426.53;;;12.76;100.00
8061;BME280;4073;42.626;25.386;2023-01-19T01:47:55;96430.13;;;12.72;100.00
8061;BME280;4073;42.626;25.386;2023-01-19T01:50:28;96442.69;;;12.63;100.00
8061;BME280;4073;42.626;25.386;2023-01-19T01:53:10;96449.00;;;12.67;100.00
8061;BME280;4073;42.626;25.386;2023-01-19T01:55:44;96451.09;;;12.70;100.00
8061;BME280;4073;42.626;25.386;2023-01-19T01:58:13;96445.44;;;12.71;100.00
8061;BME280;4073;42.626;25.386;2023-01-19T02:00:40;96428.25;;;12.72;100.00
8061;BME280;4073;42.626;25.386;2023-01-19T02:03:25;96437.56;;;12.75;100.00
8061;BME280;4073;42.626;25.386;2023-01-19T02:05:53;96440.84;;;12.72;100.00
8061;BME280;4073;42.626;25.386;2023-01-19T02:08:28;96440.66;;;12.68;100.00
8061;BME280;4073;42.626;25.386;2023-01-19T02:11:15;96457.75;;;12.72;100.00
8061;BME280;4073;42.626;25.386;2023-01-19T02:13:59;96445.66;;;12.61;100.00
8061;BME280;4073;42.626;25.386;2023-01-19T02:16:27;96467.66;;;12.72;100.00
8061;BME280;4073;42.626;25.386;2023-01-19T02:18:54;96453.94;;;12.73;100.00
8061;BME280;4073;42.626;25.386;2023-01-19T02:21:42;96461.22;;;12.73;100.00
8061;BME280;4073;42.626;25.386;2023-01-19T02:24:10;96452.00;;;12.65;100.00
8061;BME280;4073;42.626;25.386;2023-01-19T02:26:44;96448.94;;;12.58;100.00
8061;BME280;4073;42.626;25.386;2023-01-19T02:29:16;96456.03;;;12.76;100.00
8061;BME280;4073;42.626;25.386;2023-01-19T02:31:43;96451.84;;;12.84;100.00
8061;BME280;4073;42.626;25.386;2023-01-19T02:34:11;96452.66;;;12.84;100.00
8061;BME280;4073;42.626;25.386;2023-01-19T02:39:07;96454.09;;;12.90;100.00
8061;BME280;4073;42.626;25.386;2023-01-19T02:41:38;96462.94;;;12.91;100.00
8061;BME280;4073;42.626;25.386;2023-01-19T02:44:07;96461.78;;;12.83;100.00
8061;BME280;4073;42.626;25.386;2023-01-19T02:46:33;96448.66;;;12.82;100.00
8061;BME280;4073;42.626;25.386;2023-01-19T02:48:59;96458.13;;;12.79;100.00
8061;BME280;4073;42.626;25.386;2023-01-19T02:51:25;96451.66;;;12.80;100.00
8061;BME280;4073;42.626;25.386;2023-01-19T02:56:36;96432.34;;;12.56;100.00
8061;BME280;4073;42.626;25.386;2023-01-19T03:07:10;96464.59;;;12.65;100.00
8061;BME280;4073;42.626;25.386;2023-01-19T03:10:07;96461.75;;;12.61;100.00
8061;BME280;4073;42.626;25.386;2023-01-19T03:15:31;96455.50;;;12.52;100.00
8061;BME280;4073;42.626;25.386;2023-01-19T03:17:59;96456.59;;;12.51;100.00
8061;BME280;4073;42.626;25.386;2023-01-19T03:20:26;96456.22;;;12.44;100.00
8061;BME280;4073;42.626;25.386;2023-01-19T03:23:00;96468.50;;;12.45;100.00
8061;BME280;4073;42.626;25.386;2023-01-19T03:25:29;96461.56;;;12.44;100.00
8061;BME280;4073;42.626;25.386;2023-01-19T03:27:56;96459.09;;;12.34;100.00
8061;BME280;4073;42.626;25.386;2023-01-19T03:30:27;96457.91;;;12.27;100.00
8061;BME280;4073;42.626;25.386;2023-01-19T03:33:01;96467.44;;;12.33;100.00
8061;BME280;4073;42.626;25.386;2023-01-19T03:35:34;96472.50;;;12.34;100.00
8061;BME280;4073;42.626;25.386;2023-01-19T03:38:04;96471.22;;;12.32;100.00
8061;BME280;4073;42.626;25.386;2023-01-19T03:40:31;96477.94;;;12.29;100.00
8061;BME280;4073;42.626;25.386;2023-01-19T03:42:59;96471.81;;;12.29;100.00
8061;BME280;4073;42.626;25.386;2023-01-19T03:45:25;96478.25;;;12.28;100.00
8061;BME280;4073;42.626;25.386;2023-01-19T03:47:51;96471.00;;;12.28;100.00
8061;BME280;4073;42.626;25.386;2023-01-19T03:50:29;96473.28;;;12.21;100.00
8061;BME280;4073;42.626;25.386;2023-01-19T03:53:08;96480.75;;;12.24;100.00
8061;BME280;4073;42.626;25.386;2023-01-19T03:55:36;96478.88;;;12.25;100.00
8061;BME280;4073;42.626;25.386;2023-01-19T03:58:02;96469.50;;;12.22;100.00
8061;BME280;4073;42.626;25.386;2023-01-19T04:00:28;96473.59;;;12.20;100.00
8061;BME280;4073;42.626;25.386;2023-01-19T04:02:53;96489.66;;;12.20;100.00
8061;BME280;4073;42.626;25.386;2023-01-19T04:05:20;96478.38;;;12.23;100.00
8061;BME280;4073;42.626;25.386;2023-01-19T04:07:50;96483.22;;;12.21;100.00
8061;BME280;4073;42.626;25.386;2023-01-19T04:10:17;96493.63;;;12.22;100.00
8061;BME280;4073;42.626;25.386;2023-01-19T04:12:42;96488.38;;;12.17;100.00
8061;BME280;4073;42.626;25.386;2023-01-19T04:15:08;96492.84;;;12.22;100.00
8061;BME280;4073;42.626;25.386;2023-01-19T04:17:33;96485.19;;;12.15;100.00
8061;BME280;4073;42.626;25.386;2023-01-19T04:19:59;96483.22;;;12.21;100.00
8061;BME280;4073;42.626;25.386;2023-01-19T04:22:25;96488.78;;;12.24;100.00
8061;BME280;4073;42.626;25.386;2023-01-19T04:24:50;96485.00;;;12.25;100.00
8061;BME280;4073;42.626;25.386;2023-01-19T04:27:16;96488.88;;;12.19;100.00
8061;BME280;4073;42.626;25.386;2023-01-19T04:29:41;96485.13;;;12.20;100.00
8061;BME280;4073;42.626;25.386;2023-01-19T04:32:07;96492.16;;;12.30;100.00
8061;BME280;4073;42.626;25.386;2023-01-19T04:34:32;96495.34;;;12.32;100.00
8061;BME280;4073;42.626;25.386;2023-01-19T04:36:58;96489.47;;;12.30;100.00
8061;BME280;4073;42.626;25.386;2023-01-19T04:39:23;96485.50;;;12.27;100.00
8061;BME280;4073;42.626;25.386;2023-01-19T04:41:49;96488.38;;;12.31;100.00
8061;BME280;4073;42.626;25.386;2023-01-19T04:44:16;96494.25;;;12.33;100.00
8061;BME280;4073;42.626;25.386;2023-01-19T04:46:42;96492.03;;;12.35;100.00
8061;BME280;4073;42.626;25.386;2023-01-19T04:49:08;96494.25;;;12.33;100.00
8061;BME280;4073;42.626;25.386;2023-01-19T04:51:33;96494.53;;;12.31;100.00
8061;BME280;4073;42.626;25.386;2023-01-19T04:54:00;96495.72;;;12.25;100.00
8061;BME280;4073;42.626;25.386;2023-01-19T04:56:26;96508.22;;;12.30;100.00
8061;BME280;4073;42.626;25.386;2023-01-19T04:58:51;96503.09;;;12.33;100.00
8061;BME280;4073;42.626;25.386;2023-01-19T05:01:17;96505.84;;;12.28;100.00
8061;BME280;4073;42.626;25.386;2023-01-19T05:03:42;96506.66;;;12.29;100.00
8061;BME280;4073;42.626;25.386;2023-01-19T05:06:08;96501.28;;;12.29;100.00
8061;BME280;4073;42.626;25.386;2023-01-19T05:08:33;96504.28;;;12.27;100.00
8061;BME280;4073;42.626;25.386;2023-01-19T05:10:58;96507.25;;;12.26;100.00
8061;BME280;4073;42.626;25.386;2023-01-19T05:13:24;96501.88;;;12.26;100.00
8061;BME280;4073;42.626;25.386;2023-01-19T05:15:49;96511.09;;;12.20;100.00
8061;BME280;4073;42.626;25.386;2023-01-19T05:18:15;96505.44;;;12.21;100.00
8061;BME280;4073;42.626;25.386;2023-01-19T05:20:40;96504.66;;;12.21;100.00
8061;BME280;4073;42.626;25.386;2023-01-19T05:23:06;96494.53;;;12.18;100.00
8061;BME280;4073;42.626;25.386;2023-01-19T05:25:31;96506.03;;;12.18;100.00
8061;BME280;4073;42.626;25.386;2023-01-19T05:27:56;96494.53;;;12.18;100.00
8061;BME280;4073;42.626;25.386;2023-01-19T05:30:22;96498.13;;;12.13;100.00
8061;BME280;4073;42.626;25.386;2023-01-19T05:32:47;96500.59;;;12.10;100.00
8061;BME280;4073;42.626;25.386;2023-01-19T05:35:13;96503.66;;;12.03;100.00
8061;BME280;4073;42.626;25.386;2023-01-19T05:37:40;96512.00;;;12.02;100.00
8061;BME280;4073;42.626;25.386;2023-01-19T05:40:07;96501.88;;;11.99;100.00
8061;BME280;4073;42.626;25.386;2023-01-19T05:42:33;96509.78;;;12.04;100.00
8061;BME280;4073;42.626;25.386;2023-01-19T05:44:58;96517.94;;;11.99;100.00
8061;BME280;4073;42.626;25.386;2023-01-19T05:47:24;96517.94;;;11.99;100.00
8061;BME280;4073;42.626;25.386;2023-01-19T05:49:49;96512.38;;;11.95;100.00
8061;BME280;4073;42.626;25.386;2023-01-19T05:52:15;96519.03;;;11.98;100.00
8061;BME280;4073;42.626;25.386;2023-01-19T05:54:40;96512.94;;;11.92;100.00
8061;BME280;4073;42.626;25.386;2023-01-19T05:57:06;96525.16;;;11.98;100.00
8061;BME280;4073;42.626;25.386;2023-01-19T05:59:32;96522.00;;;11.96;100.00
8061;BME280;4073;42.626;25.386;2023-01-19T06:01:57;96519.34;;;11.96;100.00
8061;BME280;4073;42.626;25.386;2023-01-19T06:04:24;96527.56;;;12.00;100.00
8061;BME280;4073;42.626;25.386;2023-01-19T06:06:50;96519.22;;;11.88;100.00
8061;BME280;4073;42.626;25.386;2023-01-19T06:09:16;96508.00;;;11.86;100.00
8061;BME280;4073;42.626;25.386;2023-01-19T06:11:43;96520.09;;;11.83;100.00
8061;BME280;4073;42.626;25.386;2023-01-19T06:14:09;96521.09;;;11.55;100.00
8061;BME280;4073;42.626;25.386;2023-01-19T06:16:35;96535.84;;;11.53;100.00
8061;BME280;4073;42.626;25.386;2023-01-19T06:19:00;96536.22;;;11.46;100.00
8061;BME280;4073;42.626;25.386;2023-01-19T06:21:26;96541.88;;;11.45;100.00
8061;BME280;4073;42.626;25.386;2023-01-19T06:23:52;96538.41;;;11.26;100.00
8061;BME280;4073;42.626;25.386;2023-01-19T06:26:17;96548.66;;;11.37;100.00
8061;BME280;4073;42.626;25.386;2023-01-19T06:28:42;96537.94;;;11.56;100.00
8061;BME280;4073;42.626;25.386;2023-01-19T06:31:08;96562.66;;;11.85;100.00
8061;BME280;4073;42.626;25.386;2023-01-19T06:33:33;96546.63;;;12.25;100.00
8061;BME280;4073;42.626;25.386;2023-01-19T06:35:59;96570.41;;;12.59;100.00
8061;BME280;4073;42.626;25.386;2023-01-19T06:38:25;96562.59;;;12.98;100.00
8061;BME280;4073;42.626;25.386;2023-01-19T06:40:52;96565.81;;;14.02;100.00
8061;BME280;4073;42.626;25.386;2023-01-19T06:43:19;96576.19;;;14.86;100.00
8061;BME280;4073;42.626;25.386;2023-01-19T06:45:45;96580.91;;;15.54;100.00
8061;BME280;4073;42.626;25.386;2023-01-19T06:48:11;96573.41;;;16.65;100.00
8061;BME280;4073;42.626;25.386;2023-01-19T06:50:36;96587.69;;;17.53;78.20
8061;BME280;4073;42.626;25.386;2023-01-19T06:53:02;96576.91;;;18.39;72.75
8061;BME280;4073;42.626;25.386;2023-01-19T06:55:27;96582.81;;;19.25;68.77
8061;BME280;4073;42.626;25.386;2023-01-19T06:57:57;96588.22;;;19.88;65.26
8061;BME280;4073;42.626;25.386;2023-01-19T07:00:23;96581.13;;;20.39;62.58
8061;BME280;4073;42.626;25.386;2023-01-19T07:02:48;96585.72;;;20.82;60.78
8061;BME280;4073;42.626;25.386;2023-01-19T07:05:14;96596.25;;;20.83;60.67
8061;BME280;4073;42.626;25.386;2023-01-19T07:07:40;96597.19;;;21.22;58.88
8061;BME280;4073;42.626;25.386;2023-01-19T07:10:07;96588.00;;;21.11;59.42
8061;BME280;4073;42.626;25.386;2023-01-19T07:12:33;96598.53;;;20.97;59.56
8061;BME280;4073;42.626;25.386;2023-01-19T07:14:59;96607.38;;;20.94;59.86
8061;BME280;4073;42.626;25.386;2023-01-19T07:17:25;96601.22;;;21.12;59.10
8061;BME280;4073;42.626;25.386;2023-01-19T07:19:50;96596.94;;;21.11;60.41
8061;BME280;4073;42.626;25.386;2023-01-19T07:22:16;96594.00;;;21.85;57.57
8061;BME280;4073;42.626;25.386;2023-01-19T07:24:41;96614.69;;;21.55;57.94
8061;BME280;4073;42.626;25.386;2023-01-19T07:27:06;96606.47;;;21.36;58.44
8061;BME280;4073;42.626;25.386;2023-01-19T07:29:32;96621.75;;;20.94;59.19
8061;BME280;4073;42.626;25.386;2023-01-19T07:31:58;96608.50;;;20.77;59.98
8061;BME280;4073;42.626;25.386;2023-01-19T07:34:23;96615.09;;;21.07;58.75
8061;BME280;4073;42.626;25.386;2023-01-19T07:36:49;96611.31;;;20.96;59.44
8061;BME280;4073;42.626;25.386;2023-01-19T07:39:14;96601.63;;;21.45;57.18
8061;BME280;4073;42.626;25.386;2023-01-19T07:41:40;96605.91;;;21.12;57.59
8061;BME280;4073;42.626;25.386;2023-01-19T07:44:06;96596.84;;;21.58;56.58
8061;BME280;4073;42.626;25.386;2023-01-19T07:46:32;96622.63;;;21.64;55.55
8061;BME280;4073;42.626;25.386;2023-01-19T07:48:58;96611.50;;;21.53;56.44
8061;BME280;4073;42.626;25.386;2023-01-19T07:51:23;96609.88;;;21.68;55.60
8061;BME280;4073;42.626;25.386;2023-01-19T07:53:49;96618.63;;;22.11;53.91
8061;BME280;4073;42.626;25.386;2023-01-19T07:56:15;96623.97;;;22.65;53.15
8061;BME280;4073;42.626;25.386;2023-01-19T07:58:40;96605.38;;;23.16;50.63
8061;BME280;4073;42.626;25.386;2023-01-19T08:01:08;96604.28;;;23.20;50.27
8061;BME280;4073;42.626;25.386;2023-01-19T08:03:33;96608.91;;;23.42;49.81
8061;BME280;4073;42.626;25.386;2023-01-19T08:05:59;96620.63;;;23.43;49.46
8061;BME280;4073;42.626;25.386;2023-01-19T08:08:24;96620.94;;;23.15;49.18
8061;BME280;4073;42.626;25.386;2023-01-19T08:10:51;96621.63;;;22.63;49.98
8061;BME280;4073;42.626;25.386;2023-01-19T08:13:18;96623.41;;;22.56;51.20
8061;BME280;4073;42.626;25.386;2023-01-19T08:15:43;96610.88;;;22.51;50.51
8061;BME280;4073;42.626;25.386;2023-01-19T08:18:09;96623.53;;;22.63;50.36
8061;BME280;4073;42.626;25.386;2023-01-19T08:20:35;96637.97;;;22.86;49.66
8061;BME280;4073;42.626;25.386;2023-01-19T08:23:02;96625.22;;;22.29;51.63
8061;BME280;4073;42.626;25.386;2023-01-19T08:25:35;96619.47;;;22.95;50.40
8061;BME280;4073;42.626;25.386;2023-01-19T08:28:03;96614.22;;;23.58;48.32
8061;BME280;4073;42.626;25.386;2023-01-19T08:30:29;96626.28;;;23.31;49.13
8061;BME280;4073;42.626;25.386;2023-01-19T08:32:55;96626.81;;;23.40;48.21
8061;BME280;4073;42.626;25.386;2023-01-19T08:35:31;96635.66;;;22.88;48.80
8061;BME280;4073;42.626;25.386;2023-01-19T08:37:57;96613.38;;;23.05;49.02
8061;BME280;4073;42.626;25.386;2023-01-19T08:40:30;96622.16;;;23.40;48.31
8061;BME280;4073;42.626;25.386;2023-01-19T08:43:03;96624.63;;;23.49;46.93
8061;BME280;4073;42.626;25.386;2023-01-19T08:45:30;96644.53;;;22.62;49.03
8061;BME280;4073;42.626;25.386;2023-01-19T08:47:56;96633.19;;;23.02;48.77
8061;BME280;4073;42.626;25.386;2023-01-19T08:50:26;96615.25;;;23.24;48.35
8061;BME280;4073;42.626;25.386;2023-01-19T08:52:55;96623.47;;;23.50;47.41
8061;BME280;4073;42.626;25.386;2023-01-19T08:55:22;96620.84;;;23.86;47.48
8061;BME280;4073;42.626;25.386;2023-01-19T08:57:50;96614.34;;;23.16;47.48
8061;BME280;4073;42.626;25.386;2023-01-19T09:00:17;96606.19;;;22.94;48.26
8061;BME280;4073;42.626;25.386;2023-01-19T09:02:43;96604.56;;;23.15;48.10
8061;BME280;4073;42.626;25.386;2023-01-19T09:05:09;96615.44;;;22.28;49.55
8061;BME280;4073;42.626;25.386;2023-01-19T09:07:34;96605.44;;;22.74;49.34
8061;BME280;4073;42.626;25.386;2023-01-19T09:10:02;96636.59;;;22.16;49.91
8061;BME280;4073;42.626;25.386;2023-01-19T09:12:27;96618.91;;;22.25;49.30
8061;BME280;4073;42.626;25.386;2023-01-19T09:14:53;96601.13;;;22.31;49.58
8061;BME280;4073;42.626;25.386;2023-01-19T09:17:18;96602.63;;;22.48;48.68
8061;BME280;4073;42.626;25.386;2023-01-19T09:19:44;96596.50;;;22.73;47.52
8061;BME280;4073;42.626;25.386;2023-01-19T09:22:09;96632.56;;;22.90;47.02
8061;BME280;4073;42.626;25.386;2023-01-19T09:24:35;96620.06;;;23.30;45.86
8061;BME280;4073;42.626;25.386;2023-01-19T09:27:01;96637.56;;;23.29;45.83
8061;BME280;4073;42.626;25.386;2023-01-19T09:29:26;96591.22;;;22.61;47.12
8061;BME280;4073;42.626;25.386;2023-01-19T09:31:51;96583.47;;;22.44;47.80
8061;BME280;4073;42.626;25.386;2023-01-19T09:34:17;96584.91;;;22.57;47.78
8061;BME280;4073;42.626;25.386;2023-01-19T09:36:42;96592.78;;;22.62;47.20
8061;BME280;4073;42.626;25.386;2023-01-19T09:39:08;96612.44;;;22.52;47.93
8061;BME280;4073;42.626;25.386;2023-01-19T09:41:35;96585.63;;;22.54;47.69
8061;BME280;4073;42.626;25.386;2023-01-19T09:44:03;96635.50;;;22.58;46.45
8061;BME280;4073;42.626;25.386;2023-01-19T09:46:41;96604.91;;;22.88;46.46
8061;BME280;4073;42.626;25.386;2023-01-19T09:49:15;96573.41;;;22.90;46.70
8061;BME280;4073;42.626;25.386;2023-01-19T09:51:46;96571.84;;;22.66;47.45
8061;BME280;4073;42.626;25.386;2023-01-19T09:57:00;96572.00;;;23.00;46.61
8061;BME280;4073;42.626;25.386;2023-01-19T09:59:30;96577.38;;;23.19;46.38
8061;BME280;4073;42.626;25.386;2023-01-19T10:10:52;96550.63;;;22.34;47.69
8061;BME280;4073;42.626;25.386;2023-01-19T10:19:19;96537.19;;;22.44;48.30
8061;BME280;4073;42.626;25.386;2023-01-19T10:21:49;96568.00;;;22.48;47.69
8061;BME280;4073;42.626;25.386;2023-01-19T10:26:59;96535.41;;;21.72;51.15
8061;BME280;4073;42.626;25.386;2023-01-19T10:29:31;96543.03;;;21.67;50.51
8061;BME280;4073;42.626;25.386;2023-01-19T10:32:09;96531.97;;;21.41;50.99
8061;BME280;4073;42.626;25.386;2023-01-19T10:34:36;96551.69;;;21.19;52.12
8061;BME280;4073;42.626;25.386;2023-01-19T10:37:27;96536.59;;;21.21;52.25
8061;BME280;4073;42.626;25.386;2023-01-19T10:39:58;96526.69;;;21.29;52.07
8061;BME280;4073;42.626;25.386;2023-01-19T10:42:28;96525.78;;;21.06;53.36
8061;BME280;4073;42.626;25.386;2023-01-19T10:44:54;96515.47;;;21.15;53.50
8061;BME280;4073;42.626;25.386;2023-01-19T10:47:21;96504.09;;;21.09;53.72
8061;BME280;4073;42.626;25.386;2023-01-19T10:49:48;96488.22;;;21.11;53.47
8061;BME280;4073;42.626;25.386;2023-01-19T10:52:34;96497.50;;;21.45;52.69
8061;BME280;4073;42.626;25.386;2023-01-19T10:55:03;96495.13;;;21.24;52.62
8061;BME280;4073;42.626;25.386;2023-01-19T10:57:37;96510.59;;;21.05;53.39
8061;BME280;4073;42.626;25.386;2023-01-19T11:00:38;96519.19;;;20.91;54.14
8061;BME280;4073;42.626;25.386;2023-01-19T11:03:30;96544.34;;;20.88;54.72
8061;BME280;4073;42.626;25.386;2023-01-19T11:08:44;96501.88;;;20.65;55.52
8061;BME280;4073;42.626;25.386;2023-01-19T11:11:10;96497.38;;;20.57;55.95
8061;BME280;4073;42.626;25.386;2023-01-19T11:13:38;96514.47;;;20.57;55.22
8061;BME280;4073;42.626;25.386;2023-01-19T11:16:24;96501.09;;;20.49;56.58
8061;BME280;4073;42.626;25.386;2023-01-19T11:18:54;96513.50;;;20.81;54.69
8061;BME280;4073;42.626;25.386;2023-01-19T11:21:22;96495.75;;;20.68;56.03
8061;BME280;4073;42.626;25.386;2023-01-19T11:23:56;96532.09;;;20.94;55.09
8061;BME280;4073;42.626;25.386;2023-01-19T11:26:41;96501.53;;;20.51;55.87
8061;BME280;4073;42.626;25.386;2023-01-19T11:31:43;96559.75;;;20.10;56.74
8061;BME280;4073;42.626;25.386;2023-01-19T11:34:32;96495.13;;;20.12;57.05
8061;BME280;4073;42.626;25.386;2023-01-19T11:36:59;96512.22;;;20.00;56.90
8061;BME280;4073;42.626;25.386;2023-01-19T11:39:27;96493.53;;;19.56;57.67
8061;BME280;4073;42.626;25.386;2023-01-19T11:41:58;96499.50;;;19.61;57.83
8061;BME280;4073;42.626;25.386;2023-01-19T11:44:28;96487.59;;;19.78;57.00
8061;BME280;4073;42.626;25.386;2023-01-19T11:47:00;96504.38;;;20.11;56.36
8061;BME280;4073;42.626;25.386;2023-01-19T11:52:36;96490.47;;;20.43;55.67
8061;BME280;4073;42.626;25.386;2023-01-19T11:57:30;96516.31;;;20.22;55.81
8061;BME280;4073;42.626;25.386;2023-01-19T11:59:56;96487.22;;;20.22;55.96
8061;BME280;4073;42.626;25.386;2023-01-19T12:02:35;96479.78;;;20.35;55.74
8061;BME280;4073;42.626;25.386;2023-01-19T12:05:12;96485.06;;;20.59;54.46
8061;BME280;4073;42.626;25.386;2023-01-19T12:07:39;96485.03;;;20.43;54.62
8061;BME280;4073;42.626;25.386;2023-01-19T12:10:26;96494.69;;;20.41;54.52
8061;BME280;4073;42.626;25.386;2023-01-19T12:12:53;96528.09;;;20.14;55.04
8061;BME280;4073;42.626;25.386;2023-01-19T12:15:36;96523.94;;;19.77;56.15
8061;BME280;4073;42.626;25.386;2023-01-19T12:18:04;96498.50;;;19.81;56.97
8061;BME280;4073;42.626;25.386;2023-01-19T12:20:44;96502.50;;;19.99;56.29
8061;BME280;4073;42.626;25.386;2023-01-19T12:28:17;96489.59;;;20.39;54.30
8061;BME280;4073;42.626;25.386;2023-01-19T12:30:44;96472.53;;;20.39;54.08
8061;BME280;4073;42.626;25.386;2023-01-19T12:36:04;96502.78;;;20.10;54.34
8061;BME280;4073;42.626;25.386;2023-01-19T12:38:55;96500.50;;;19.96;54.77
8061;BME280;4073;42.626;25.386;2023-01-19T12:41:33;96501.03;;;20.02;55.12
8061;BME280;4073;42.626;25.386;2023-01-19T12:46:52;96508.34;;;20.01;55.16
8061;BME280;4073;42.626;25.386;2023-01-19T12:49:26;96513.06;;;19.89;55.73
8061;BME280;4073;42.626;25.386;2023-01-19T12:52:09;96493.63;;;19.87;56.10
8061;BME280;4073;42.626;25.386;2023-01-19T12:54:37;96492.81;;;19.71;56.02
8061;BME280;4073;42.626;25.386;2023-01-19T12:57:18;96495.94;;;19.73;55.24
8061;BME280;4073;42.626;25.386;2023-01-19T12:59:45;96513.72;;;19.70;56.13
8061;BME280;4073;42.626;25.386;2023-01-19T13:16:54;96502.44;;;19.17;55.97
8061;BME280;4073;42.626;25.386;2023-01-19T13:19:31;96489.13;;;19.12;55.72
8061;BME280;4073;42.626;25.386;2023-01-19T13:25:12;96506.31;;;18.80;56.82
8061;BME280;4073;42.626;25.386;2023-01-19T13:27:46;96502.69;;;18.88;56.60
8061;BME280;4073;42.626;25.386;2023-01-19T13:30:14;96499.44;;;18.82;56.97
8061;BME280;4073;42.626;25.386;2023-01-19T13:32:42;96503.16;;;18.54;57.72
8061;BME280;4073;42.626;25.386;2023-01-19T13:35:13;96510.72;;;18.48;57.35
8061;BME280;4073;42.626;25.386;2023-01-19T13:37:43;96500.03;;;18.52;57.17
8061;BME280;4073;42.626;25.386;2023-01-19T13:40:19;96510.38;;;18.50;58.03
8061;BME280;4073;42.626;25.386;2023-01-19T13:42:46;96510.06;;;18.51;57.97
8061;BME280;4073;42.626;25.386;2023-01-19T13:45:33;96502.94;;;18.47;58.30
8061;BME280;4073;42.626;25.386;2023-01-19T13:48:04;96515.34;;;18.36;57.92
8061;BME280;4073;42.626;25.386;2023-01-19T13:50:32;96495.13;;;18.33;58.31
8061;BME280;4073;42.626;25.386;2023-01-19T13:52:59;96509.00;;;18.32;58.76
8061;BME280;4073;42.626;25.386;2023-01-19T13:55:27;96509.66;;;18.29;59.14
8061;BME280;4073;42.626;25.386;2023-01-19T13:57:53;96539.53;;;18.20;59.21
8061;BME280;4073;42.626;25.386;2023-01-19T14:02:59;96516.47;;;17.69;60.94
8061;BME280;4073;42.626;25.386;2023-01-19T14:05:27;96507.59;;;17.69;61.51
8061;BME280;4073;42.626;25.386;2023-01-19T14:10:24;96497.31;;;17.62;61.38
8061;BME280;4073;42.626;25.386;2023-01-19T14:13:01;96552.22;;;17.54;61.79
8061;BME280;4073;42.626;25.386;2023-01-19T14:15:28;96525.81;;;17.31;62.64
8061;BME280;4073;42.626;25.386;2023-01-19T14:20:39;96523.53;;;17.21;63.50
8061;BME280;4073;42.626;25.386;2023-01-19T14:23:05;96529.00;;;17.12;63.86
8061;BME280;4073;42.626;25.386;2023-01-19T14:25:35;96516.34;;;17.04;64.14
8061;BME280;4073;42.626;25.386;2023-01-19T14:30:59;96522.78;;;16.91;65.20
8061;BME280;4073;42.626;25.386;2023-01-19T14:33:42;96530.78;;;16.79;65.44
8061;BME280;4073;42.626;25.386;2023-01-19T14:38:49;96515.50;;;16.54;66.67
8061;BME280;4073;42.626;25.386;2023-01-19T14:44:00;96511.94;;;16.33;67.32
8061;BME280;4073;42.626;25.386;2023-01-19T14:46:27;96522.75;;;16.25;67.33